• Join FlightAware (Why Join?)
  • Login
  • US Flag 
12:46PM EST


 

Airport Tracker/Info


-or-


 

Live Flight TrackerFlight Track Log ✈ CDG1158 ✈ 15-Sep-2013 ✈ ZSJN / TNA - ZBAA / PEK

Flight Track Log - Related Links

Times and Time Zones

All times are in EDT time to prevent confusion due to time zone crossing. See the CDG1158 flight status page for this flight to view local times or setup timezone preferences in your user account.

Time Position Orientation Groundspeed Altitude Reporting Facility
EDT Latitude Longitude Course Direction KTS MPH feet Rate Location/Type
05:22AM 37.4136 117.1109 351° North  Level Estimated
05:23AM 37.4693 117.1003 351° North  Level Estimated
05:24AM 37.5168 117.0912 351° North  Level Estimated
05:25AM 37.5644 117.0822 351° North  Level Estimated
05:26AM 37.6119 117.0731 351° North  Level Estimated
05:27AM 37.6594 117.0640 351° North  Level Estimated
05:28AM 37.7069 117.0549 351° North  Level Estimated
05:29AM 37.7544 117.0458 351° North  Level Estimated
05:30AM 37.8019 117.0367 351° North  Level Estimated
05:31AM 37.8494 117.0275 351° North  Level Estimated
05:32AM 37.8969 117.0184 351° North  Level Estimated
05:33AM 37.9444 117.0092 351° North  Level Estimated
05:34AM 37.9919 117.0000 351° North  Level Estimated
05:35AM 38.0394 116.9909 351° North  Level Estimated
05:36AM 38.0869 116.9817 351° North  Level Estimated
05:37AM 38.1344 116.9725 351° North  Level Estimated
05:38AM 38.1819 116.9632 351° North  Level Estimated
05:39AM 38.2294 116.9540 351° North  Level Estimated
05:40AM 38.2769 116.9448 351° North  Level Estimated
05:41AM 38.3244 116.9355 351° North  Level Estimated
05:42AM 38.3719 116.9262 351° North  Level Estimated
05:43AM 38.4194 116.9170 351° North  Level Estimated
05:44AM 38.4669 116.9077 351° North  Level Estimated
05:45AM 38.5144 116.8984 351° North  Level Estimated
05:46AM 38.5619 116.8891 351° North  Level Estimated
05:47AM 38.6094 116.8797 351° North  Level Estimated
05:48AM 38.6569 116.8704 351° North  Level Estimated
05:49AM 38.7044 116.8611 351° North  Level Estimated
05:50AM 38.7519 116.8517 351° North  Level Estimated
05:51AM 38.7994 116.8423 351° North  Level Estimated
05:52AM 38.8469 116.8329 351° North  Level Estimated
05:53AM 38.8943 116.8235 351° North  Level Estimated
05:54AM 38.9418 116.8141 351° North  Level Estimated
05:55AM 38.9893 116.8047 351° North  Level Estimated
05:56AM 39.0368 116.7952 351° North  Level Estimated
05:57AM 39.0843 116.7858 351° North  Level Estimated
05:58AM 39.1318 116.7763 351° North  Level Estimated
05:59AM 39.1793 116.7669 351° North  Level Estimated
06:00AM 39.2495 116.7528 351° North  Level Estimated
06:01AM 39.3197 116.7388 351° North  Level Estimated
06:02AM 39.3899 116.7247 351° North  Level Estimated
06:03AM 39.4600 116.7105 351° North  Level Estimated